createdAt,value
2023-03-11T00:02:42.921Z,37.97
2023-03-11T00:07:45.746Z,41.20
2023-03-11T00:12:48.396Z,42.05
2023-03-11T00:17:51.468Z,45.10
2023-03-11T00:22:55.028Z,43.88
2023-03-11T00:27:58.599Z,43.35
2023-03-11T00:33:01.414Z,45.33
2023-03-11T00:38:06.572Z,41.10
2023-03-11T00:43:09.246Z,39.28
2023-03-11T00:48:13.516Z,38.70
2023-03-11T00:53:16.259Z,39.28
2023-03-11T00:58:19.227Z,39.40
2023-03-11T01:03:26.185Z,41.25
2023-03-11T01:08:29.828Z,44.67
2023-03-11T01:13:33.624Z,43.45
2023-03-11T01:18:36.160Z,50.35
2023-03-11T01:23:40.554Z,50.08
2023-03-11T01:28:43.453Z,44.05
2023-03-11T01:33:46.050Z,39.75
2023-03-11T01:38:48.772Z,47.10
2023-03-11T01:43:55.210Z,52.67
2023-03-11T01:49:04.219Z,47.17
2023-03-11T01:54:21.180Z,43.75
2023-03-11T01:59:29.800Z,41.83
2023-03-11T02:04:35.881Z,44.55
2023-03-11T02:09:39.307Z,40.08
2023-03-11T02:14:46.368Z,39.83
2023-03-11T02:25:40.674Z,41.67
2023-03-11T02:30:45.002Z,40.03
2023-03-11T02:35:48.064Z,42.30
2023-03-11T02:40:55.795Z,46.17
2023-03-11T02:46:00.735Z,44.28
2023-03-11T02:51:04.132Z,39.78
2023-03-11T02:56:07.174Z,41.08
2023-03-11T03:01:10.802Z,35.95
2023-03-11T03:06:16.077Z,35.50
2023-03-11T03:11:18.955Z,35.55
2023-03-11T03:16:22.039Z,36.28
2023-03-11T03:21:24.675Z,39.28
2023-03-11T03:26:28.440Z,37.83
2023-03-11T03:31:32.674Z,44.90
2023-03-11T03:36:36.844Z,50.97
2023-03-11T03:41:40.877Z,43.50
2023-03-11T03:46:44.082Z,43.63
2023-03-11T03:51:47.857Z,44.40
2023-03-11T03:57:00.131Z,36.80
2023-03-11T04:02:04.686Z,35.78
2023-03-11T04:07:07.847Z,40.35
2023-03-11T04:12:15.595Z,43.47
2023-03-11T04:17:18.951Z,46.50
2023-03-11T04:22:22.315Z,47.15
2023-03-11T04:27:25.040Z,48.83
2023-03-11T04:32:28.532Z,44.00
2023-03-11T04:37:31.280Z,42.85
2023-03-11T04:42:34.112Z,42.75
2023-03-11T04:47:37.307Z,47.45
2023-03-11T04:52:41.274Z,51.13
2023-03-11T04:57:44.385Z,64.10
2023-03-11T05:02:49.226Z,61.55
2023-03-11T05:07:51.932Z,76.50
2023-03-11T05:12:54.828Z,74.90
2023-03-11T05:18:00.943Z,68.45
2023-03-11T05:23:04.788Z,65.15
2023-03-11T05:28:10.092Z,65.05
2023-03-11T05:33:17.735Z,44.53
2023-03-11T05:38:21.382Z,35.65
2023-03-11T05:43:24.604Z,41.88
2023-03-11T05:48:30.398Z,41.85
2023-03-11T05:53:33.300Z,53.28
2023-03-11T05:58:35.997Z,57.72
2023-03-11T06:03:40.039Z,50.17
2023-03-11T06:08:46.189Z,52.83
2023-03-11T06:13:49.179Z,49.00
2023-03-11T06:18:52.419Z,41.65
2023-03-11T06:23:56.436Z,27.20
2023-03-11T06:29:00.905Z,30.27
2023-03-11T06:34:05.550Z,35.58
2023-03-11T06:39:11.716Z,54.60
2023-03-11T06:44:14.573Z,54.55
2023-03-11T06:49:18.043Z,62.05
2023-03-11T06:54:20.967Z,56.53
2023-03-11T06:59:23.772Z,53.95
2023-03-11T07:04:27.936Z,75.57
2023-03-11T07:09:30.753Z,62.95
2023-03-11T07:14:34.060Z,63.35
2023-03-11T07:19:37.345Z,45.85
2023-03-11T07:24:40.984Z,49.17
2023-03-11T07:29:43.647Z,59.58
2023-03-11T07:34:46.378Z,56.33
2023-03-11T07:39:48.952Z,40.80
2023-03-11T07:44:52.053Z,50.92
2023-03-11T07:49:56.948Z,35.90
2023-03-11T07:55:00.034Z,37.05
2023-03-11T08:00:02.913Z,58.53
2023-03-11T08:05:25.217Z,65.97
2023-03-11T08:10:28.032Z,62.00
2023-03-11T08:15:32.113Z,54.67
2023-03-11T08:20:34.930Z,54.78
2023-03-11T08:25:40.145Z,75.70
2023-03-11T08:30:43.145Z,89.75
2023-03-11T08:35:45.903Z,95.28
2023-03-11T08:40:48.883Z,82.95
2023-03-11T08:45:51.477Z,91.00
2023-03-11T08:50:54.875Z,95.38
2023-03-11T08:55:58.499Z,99.07
2023-03-11T09:01:01.387Z,77.22
2023-03-11T09:06:06.777Z,66.97
2023-03-11T09:11:10.654Z,57.17
2023-03-11T09:16:17.226Z,102.82
2023-03-11T09:21:20.312Z,78.80
2023-03-11T09:26:23.127Z,47.47
2023-03-11T09:31:25.768Z,52.65
2023-03-11T09:36:28.509Z,55.40
2023-03-11T09:41:57.396Z,68.00
2023-03-11T09:52:53.384Z,112.53
2023-03-11T09:58:00.187Z,220.52
2023-03-11T10:03:03.924Z,193.48
2023-03-11T10:08:28.343Z,131.82
2023-03-11T10:35:04.763Z,116.28
2023-03-11T10:40:25.213Z,85.38
2023-03-11T10:45:33.559Z,58.83
2023-03-11T10:50:50.117Z,66.50
2023-03-11T10:55:55.271Z,75.13
2023-03-11T11:01:14.706Z,81.40
2023-03-11T11:11:36.726Z,69.32
2023-03-11T11:16:41.063Z,85.25
2023-03-11T11:21:49.248Z,78.30
2023-03-11T11:32:26.316Z,79.18
2023-03-11T11:37:32.294Z,64.40
2023-03-11T11:42:36.181Z,61.20
2023-03-11T11:52:51.587Z,51.95
2023-03-11T11:57:54.294Z,71.15
2023-03-11T12:03:26.187Z,64.10
2023-03-11T12:08:42.974Z,48.85
2023-03-11T12:19:44.872Z,53.10
2023-03-11T12:30:27.455Z,50.90
2023-03-11T12:35:32.957Z,61.65
2023-03-11T12:46:00.368Z,55.05
2023-03-11T12:51:03.519Z,63.88
2023-03-11T12:56:21.945Z,70.57
2023-03-11T13:12:51.854Z,67.35
2023-03-11T13:44:13.971Z,49.00
2023-03-11T13:49:40.606Z,50.03
2023-03-11T13:54:49.312Z,53.38
2023-03-11T13:59:54.134Z,44.05
2023-03-11T14:05:04.801Z,56.85
2023-03-11T14:15:27.524Z,36.25
2023-03-11T14:20:30.507Z,43.50
2023-03-11T14:25:36.496Z,39.97
2023-03-11T14:30:39.164Z,42.13
2023-03-11T14:35:42.094Z,48.28
2023-03-11T14:40:44.781Z,41.47
2023-03-11T14:45:49.223Z,46.10
2023-03-11T14:50:54.114Z,56.60
2023-03-11T14:56:00.402Z,44.58
2023-03-11T15:06:17.887Z,29.17
2023-03-11T15:11:25.365Z,44.20
2023-03-11T15:16:37.544Z,39.25
2023-03-11T15:21:47.190Z,37.00
2023-03-11T15:27:07.949Z,39.67
2023-03-11T15:32:46.846Z,45.28
2023-03-11T15:38:11.100Z,39.33
2023-03-11T15:48:29.073Z,28.00
2023-03-11T15:53:31.872Z,20.63
2023-03-11T15:58:34.592Z,24.38
2023-03-11T16:03:39.218Z,21.00
2023-03-11T16:14:43.022Z,20.38
2023-03-11T16:19:49.226Z,24.02
2023-03-11T16:24:54.072Z,24.55
2023-03-11T16:29:56.910Z,22.73
2023-03-11T16:34:59.634Z,21.83
2023-03-11T16:40:02.543Z,24.20
2023-03-11T16:45:06.888Z,24.10
2023-03-11T16:50:11.591Z,25.58
2023-03-11T16:55:14.338Z,19.98
2023-03-11T17:00:18.314Z,20.60
2023-03-11T17:05:21.725Z,22.25
2023-03-11T17:10:25.581Z,22.15
2023-03-11T17:15:28.434Z,21.10
2023-03-11T17:20:31.754Z,22.73
2023-03-11T17:25:34.517Z,17.42
2023-03-11T17:30:43.204Z,19.92
2023-03-11T17:35:47.210Z,16.20
2023-03-11T17:40:49.871Z,16.42
2023-03-11T17:45:53.991Z,14.15
2023-03-11T17:50:59.780Z,13.27
2023-03-11T17:56:03.578Z,14.50
2023-03-11T18:01:13.561Z,17.00
2023-03-11T18:06:19.289Z,13.55
2023-03-11T18:11:25.274Z,15.27
2023-03-11T18:16:32.124Z,14.93
2023-03-11T18:21:34.852Z,14.45
2023-03-11T18:26:37.821Z,13.95
2023-03-11T18:31:41.575Z,12.55
2023-03-11T18:36:44.282Z,14.07
2023-03-11T18:41:46.889Z,11.25
2023-03-11T18:46:50.803Z,11.60
2023-03-11T18:51:53.434Z,9.50
2023-03-11T18:56:56.346Z,11.48
2023-03-11T19:01:58.919Z,9.15
2023-03-11T19:07:01.538Z,8.50
2023-03-11T19:12:04.350Z,7.30
2023-03-11T19:17:07.000Z,8.90
2023-03-11T19:22:09.632Z,7.88
2023-03-11T19:27:12.380Z,7.93
2023-03-11T19:32:15.020Z,9.13
2023-03-11T19:37:17.626Z,11.70
2023-03-11T19:42:21.119Z,11.68
2023-03-11T19:47:24.181Z,13.48
2023-03-11T19:52:26.981Z,12.80
2023-03-11T19:57:29.763Z,10.73
2023-03-11T20:02:32.444Z,9.07
2023-03-11T20:07:34.989Z,10.65
2023-03-11T20:12:37.625Z,9.05
2023-03-11T20:17:40.220Z,7.15
2023-03-11T20:22:42.760Z,7.78
2023-03-11T20:27:45.397Z,8.70
2023-03-11T20:32:49.092Z,8.60
2023-03-11T20:37:51.865Z,10.85
2023-03-11T20:42:54.709Z,8.00
2023-03-11T20:47:57.500Z,9.60
2023-03-11T20:53:00.024Z,6.32
2023-03-11T20:58:02.817Z,8.80
2023-03-11T21:03:05.576Z,7.22
2023-03-11T21:08:08.328Z,10.07
2023-03-11T21:13:11.014Z,8.73
2023-03-11T21:18:13.941Z,7.78
2023-03-11T21:23:19.020Z,10.68
2023-03-11T21:28:21.666Z,8.68
2023-03-11T21:33:24.569Z,10.63
2023-03-11T21:38:29.088Z,9.23
2023-03-11T21:43:31.925Z,8.70
2023-03-11T21:48:35.133Z,9.38
2023-03-11T21:53:37.857Z,7.72
2023-03-11T21:58:41.098Z,7.10
2023-03-11T22:03:44.170Z,10.85
2023-03-11T22:08:47.551Z,6.63
2023-03-11T22:13:54.219Z,9.77
2023-03-11T22:18:57.792Z,6.82
2023-03-11T22:24:12.011Z,9.02
2023-03-11T22:29:16.848Z,7.78
2023-03-11T22:34:23.082Z,7.47
2023-03-11T22:39:27.723Z,6.40
2023-03-11T22:44:34.397Z,7.32
2023-03-11T22:49:40.688Z,9.27
2023-03-11T22:54:44.777Z,7.82
2023-03-11T22:59:50.006Z,7.65
2023-03-11T23:04:54.038Z,9.25
2023-03-11T23:09:57.720Z,9.18
2023-03-11T23:15:15.693Z,6.47
2023-03-11T23:20:18.393Z,8.10
2023-03-11T23:25:21.156Z,12.15
2023-03-11T23:30:24.125Z,10.40
2023-03-11T23:35:26.802Z,11.43
2023-03-11T23:40:29.535Z,11.98
2023-03-11T23:45:32.089Z,8.90
2023-03-11T23:50:34.622Z,13.70
2023-03-11T23:55:38.396Z,10.68
